sensor_id;sensor_type;location;lat;lon;timestamp;P1;durP1;ratioP1;P2;durP2;ratioP2
46633;SDS011;32362;49.986;8.026;2022-08-21T00:17:41;7.93;;;2.67;;
46633;SDS011;32362;49.986;8.026;2022-08-21T00:44:22;6.18;;;2.30;;
46633;SDS011;32362;49.986;8.026;2022-08-21T01:11:03;9.17;;;3.27;;
46633;SDS011;32362;49.986;8.026;2022-08-21T01:37:44;6.95;;;2.40;;
46633;SDS011;32362;49.986;8.026;2022-08-21T02:04:26;7.85;;;2.63;;
46633;SDS011;32362;49.986;8.026;2022-08-21T02:31:06;6.75;;;3.03;;
46633;SDS011;32362;49.986;8.026;2022-08-21T02:57:47;8.82;;;2.40;;
46633;SDS011;32362;49.986;8.026;2022-08-21T03:24:30;8.18;;;3.03;;
46633;SDS011;32362;49.986;8.026;2022-08-21T03:51:10;3.65;;;2.25;;
46633;SDS011;32362;49.986;8.026;2022-08-21T04:17:52;10.02;;;2.90;;
46633;SDS011;32362;49.986;8.026;2022-08-21T04:44:33;7.10;;;2.20;;
46633;SDS011;32362;49.986;8.026;2022-08-21T05:11:14;10.38;;;3.20;;
46633;SDS011;32362;49.986;8.026;2022-08-21T05:37:54;6.28;;;2.65;;
46633;SDS011;32362;49.986;8.026;2022-08-21T06:04:39;6.47;;;2.55;;
46633;SDS011;32362;49.986;8.026;2022-08-21T06:31:21;8.27;;;3.22;;
46633;SDS011;32362;49.986;8.026;2022-08-21T06:58:04;5.30;;;2.75;;
46633;SDS011;32362;49.986;8.026;2022-08-21T07:24:45;7.53;;;2.63;;
46633;SDS011;32362;49.986;8.026;2022-08-21T07:51:27;7.20;;;2.70;;
46633;SDS011;32362;49.986;8.026;2022-08-21T08:18:08;9.05;;;2.97;;
46633;SDS011;32362;49.986;8.026;2022-08-21T08:44:49;8.70;;;2.80;;
46633;SDS011;32362;49.986;8.026;2022-08-21T09:11:48;7.03;;;2.60;;
46633;SDS011;32362;49.986;8.026;2022-08-21T09:38:39;6.38;;;1.70;;
46633;SDS011;32362;49.986;8.026;2022-08-21T10:05:21;6.22;;;2.20;;
46633;SDS011;32362;49.986;8.026;2022-08-21T10:59:24;4.57;;;2.33;;
46633;SDS011;32362;49.986;8.026;2022-08-21T11:26:13;9.32;;;2.33;;
46633;SDS011;32362;49.986;8.026;2022-08-21T12:19:58;4.43;;;1.70;;
46633;SDS011;32362;49.986;8.026;2022-08-21T12:46:45;9.50;;;1.42;;
46633;SDS011;32362;49.986;8.026;2022-08-21T13:13:31;2.23;;;1.30;;
46633;SDS011;32362;49.986;8.026;2022-08-21T13:40:19;5.13;;;1.73;;
46633;SDS011;32362;49.986;8.026;2022-08-21T14:07:15;2.90;;;1.25;;
46633;SDS011;32362;49.986;8.026;2022-08-21T14:33:58;5.05;;;1.48;;
46633;SDS011;32362;49.986;8.026;2022-08-21T15:00:39;2.85;;;1.25;;
46633;SDS011;32362;49.986;8.026;2022-08-21T15:27:20;2.57;;;1.37;;
46633;SDS011;32362;49.986;8.026;2022-08-21T15:54:00;2.63;;;1.20;;
46633;SDS011;32362;49.986;8.026;2022-08-21T16:20:41;2.70;;;1.00;;
46633;SDS011;32362;49.986;8.026;2022-08-21T16:47:22;3.63;;;1.30;;
46633;SDS011;32362;49.986;8.026;2022-08-21T17:14:04;2.67;;;1.08;;
46633;SDS011;32362;49.986;8.026;2022-08-21T17:40:47;3.15;;;0.90;;
46633;SDS011;32362;49.986;8.026;2022-08-21T18:07:28;4.33;;;1.30;;
46633;SDS011;32362;49.986;8.026;2022-08-21T18:34:10;3.67;;;0.90;;
46633;SDS011;32362;49.986;8.026;2022-08-21T19:01:03;6.80;;;1.05;;
46633;SDS011;32362;49.986;8.026;2022-08-21T19:27:44;2.63;;;1.23;;
46633;SDS011;32362;49.986;8.026;2022-08-21T19:54:26;3.35;;;1.27;;
46633;SDS011;32362;49.986;8.026;2022-08-21T20:21:09;3.97;;;1.07;;
46633;SDS011;32362;49.986;8.026;2022-08-21T20:47:53;3.53;;;0.80;;
46633;SDS011;32362;49.986;8.026;2022-08-21T21:14:40;3.92;;;1.05;;
46633;SDS011;32362;49.986;8.026;2022-08-21T22:35:17;4.43;;;0.80;;
46633;SDS011;32362;49.986;8.026;2022-08-21T23:29:21;1.95;;;0.80;;
46633;SDS011;32362;49.986;8.026;2022-08-21T23:56:20;1.90;;;0.80;;
